Latest Weather Observations for Hobart

IDT60801

Issued at 10:41 pm EDT Friday 16 November 2018 (issued every 10 minutes, with the page automatically refreshed every 10 minutes)

About weather observations | Map of weather stations | Latest weather observations for TAS | Other Formats
Station Details ID: 094029 Name: HOBART (ELLERSLIE ROAD) Lat: -42.89 Lon: 147.33 Height: 50.5 m
Data from the previous 72 hours. | See also: Recent months at Hobart
Date/Time
EDT
Temp
°C
App
Temp
°C
Dew
Point
°C
Rel
Hum
%
Delta-T
°C
Wind Press
QNH
hPa
Press
MSL
hPa
Rain since
9am
mm
Dir  Spd
km/h
Gust
km/h
Spd
kts
Gust
kts
16/10:30pm 9.7 6.8 6.4 80 1.5 WSW 11 15 6 8 1022.7 1022.7 0.2
16/10:00pm 10.2 8.1 6.5 78 1.7 WSW 7 9 4 5 1022.6 1022.6 0.2
16/09:30pm 10.9 9.0 6.5 74 2.1 W 6 11 3 6 1022.5 1022.5 0.2
16/09:00pm 11.4 9.4 6.1 70 2.5 S 6 9 3 5 1022.3 1022.3 0.2
16/08:30pm 11.6 9.0 6.3 70 2.5 SSE 9 17 5 9 1021.9 1021.9 0.2
16/08:00pm 12.0 8.0 6.5 69 2.6 SE 17 22 9 12 1021.6 1021.6 0.2
16/07:30pm 12.5 8.8 6.5 67 2.9 SE 15 20 8 11 1021.4 1021.4 0.2
16/07:00pm 12.5 9.2 6.5 67 2.9 SE 13 19 7 10 1021.0 1021.0 0.2
16/06:30pm 12.5 8.1 6.5 67 2.9 SSE 19 28 10 15 1020.8 1020.8 0.2
16/06:00pm 13.0 8.5 6.8 66 3.0 SE 20 32 11 17 1020.5 1020.5 0.2
16/05:30pm 13.0 8.5 7.0 67 2.9 SSE 20 30 11 16 1020.2 1020.2 0.2
16/05:00pm 12.9 9.2 8.0 72 2.4 SE 17 28 9 15 1020.3 1020.3 0.2
16/04:30pm 12.5 7.2 8.6 77 1.9 SSE 26 37 14 20 1020.1 1020.1 0.0
16/04:00pm 13.9 9.0 8.5 70 2.7 SE 24 32 13 17 1020.1 1020.1 0.0
16/03:30pm 15.4 11.9 7.4 59 4.0 SSE 15 28 8 15 1019.7 1019.7 0.0
16/03:00pm 15.7 11.8 7.0 56 4.3 S 17 22 9 12 1019.8 1019.8 0.0
16/02:30pm 15.9 11.6 7.1 56 4.4 S 19 26 10 14 1019.8 1019.8 0.0
16/02:00pm 15.6 11.0 6.6 55 4.4 S 20 30 11 16 1020.2 1020.2 0.0
16/01:30pm 16.0 11.5 7.0 55 4.5 SSW 20 28 11 15 1020.3 1020.3 0.0
16/01:00pm 15.8 11.5 6.8 55 4.4 SSW 19 26 10 14 1020.5 1020.5 0.0
16/12:30pm 18.2 14.7 5.4 43 6.2 NNW 13 19 7 10 1020.4 1020.4 0.0
16/12:00pm 17.3 13.8 7.1 51 5.1 NNE 15 22 8 12 1020.7 1020.7 0.0
16/11:30am 16.8 14.2 6.0 49 5.3 NNW 9 15 5 8 1021.1 1021.1 0.0
16/11:00am 15.8 11.8 6.8 55 4.4 N 17 24 9 13 1021.3 1021.3 0.0
16/10:30am 14.8 11.6 6.9 59 3.9 NNW 13 19 7 10 1021.5 1021.5 0.0
16/10:00am 14.6 11.4 6.9 60 3.7 NNW 13 20 7 11 1021.8 1021.8 0.0
16/09:30am 13.0 9.7 6.4 64 3.2 NW 13 17 7 9 1022.3 1022.3 0.0
16/09:00am 12.9 9.9 6.0 63 3.3 N 11 17 6 9 1022.3 1022.3 0.4
16/08:30am 12.1 9.1 5.9 66 2.9 N 11 17 6 9 1022.6 1022.6 0.4
16/08:00am 11.1 8.2 6.3 72 2.2 NNW 11 15 6 8 1022.6 1022.6 0.4
16/07:30am 10.9 8.0 6.5 74 2.1 NNW 11 15 6 8 1022.5 1022.5 0.4
16/07:00am 10.1 7.5 5.9 75 1.9 NNW 9 13 5 7 1022.3 1022.3 0.4
16/06:30am 9.3 6.6 5.7 78 1.6 NW 9 11 5 6 1022.3 1022.3 0.4
16/06:00am 9.0 7.5 4.8 75 1.9 NNW 2 7 1 4 1022.3 1022.3 0.4
16/05:30am 8.9 7.7 4.5 74 1.9 CALM 0 0 0 0 1022.3 1022.3 0.4
16/05:00am 8.9 7.6 4.3 73 2.0 CALM 0 0 0 0 1022.2 1022.2 0.4
16/04:30am 9.4 6.8 4.0 69 2.4 NNW 7 9 4 5 1022.3 1022.3 0.4
16/04:00am 9.7 6.4 4.3 69 2.4 NNW 11 15 6 8 1022.5 1022.5 0.4
16/03:30am 9.9 6.6 4.5 69 2.4 NNW 11 13 6 7 1023.0 1023.0 0.4
16/03:00am 9.8 7.3 4.6 70 2.3 NW 7 13 4 7 1023.5 1023.5 0.4
16/02:30am 9.6 7.1 5.0 73 2.1 NW 7 11 4 6 1024.0 1024.0 0.4
16/02:00am 9.6 7.2 5.2 74 2.0 NW 7 11 4 6 1024.4 1024.4 0.4
16/01:30am 9.7 7.9 5.5 75 1.9 NW 4 11 2 6 1024.9 1024.9 0.4
16/01:00am 9.8 8.3 4.8 71 2.2 WSW 2 6 1 3 1025.4 1025.4 0.4
16/12:30am 9.9 7.4 4.5 69 2.4 WSW 7 11 4 6 1025.9 1025.9 0.4
16/12:00am 10.0 8.7 4.2 67 2.6 CALM 0 0 0 0 1025.8 1025.8 0.4
 
Date/Time
EDT
Temp
°C
App
Temp
°C
Dew
Point
°C
Rel
Hum
%
Delta-T
°C
Wind Press
QNH
hPa
Press
MSL
hPa
Rain since
9am
mm
Dir  Spd
km/h
Gust
km/h
Spd
kts
Gust
kts
15/11:30pm 10.0 7.0 4.0 66 2.7 SW 9 11 5 6 1026.3 1026.3 0.4
15/11:00pm 10.2 8.4 3.7 64 2.8 SW 2 6 1 3 1026.2 1026.2 0.4
15/10:30pm 10.1 8.4 3.8 65 2.8 WSW 2 7 1 4 1026.3 1026.3 0.4
15/10:00pm 10.4 7.3 3.7 63 2.9 SW 9 11 5 6 1026.5 1026.5 0.4
15/09:30pm 10.7 7.9 3.0 59 3.3 S 7 13 4 7 1026.7 1026.7 0.4
15/09:00pm 10.6 6.6 2.9 59 3.3 SSE 13 17 7 9 1026.4 1026.4 0.4
15/08:30pm 10.8 6.1 3.4 60 3.2 SSE 17 22 9 12 1026.1 1026.1 0.4
15/08:00pm 10.9 6.2 3.2 59 3.3 SSE 17 22 9 12 1026.2 1026.2 0.4
15/07:30pm 11.2 6.0 3.7 60 3.3 SE 20 28 11 15 1025.9 1025.9 0.4
15/07:00pm 11.4 6.3 3.2 57 3.6 SSE 19 30 10 16 1025.9 1025.9 0.4
15/06:30pm 11.5 5.4 2.8 55 3.8 SE 24 32 13 17 1025.4 1025.4 0.4
15/06:00pm 11.6 5.7 1.5 50 4.3 SSE 22 33 12 18 1025.2 1025.2 0.4
15/05:30pm 12.2 6.1 2.6 52 4.2 SSE 24 33 13 18 1025.1 1025.1 0.4
15/05:00pm 12.3 6.2 2.7 52 4.2 SE 24 33 13 18 1025.0 1025.0 0.4
15/04:30pm 12.3 6.0 3.5 55 3.9 SE 26 33 14 18 1024.8 1024.8 0.4
15/04:00pm 12.0 6.1 4.0 58 3.6 SE 24 35 13 19 1024.6 1024.6 0.4
15/03:30pm 12.1 7.0 3.9 57 3.7 SE 20 32 11 17 1024.6 1024.6 0.4
15/03:00pm 12.2 7.2 4.4 59 3.5 S 20 30 11 16 1024.6 1024.6 0.4
15/02:30pm 11.9 6.9 4.4 60 3.4 SE 20 30 11 16 1024.5 1024.5 0.4
15/02:00pm 11.5 6.2 5.2 65 2.9 SE 22 32 12 17 1024.5 1024.5 0.4
15/01:30pm 12.1 6.4 4.8 61 3.3 S 24 33 13 18 1024.1 1024.1 0.4
15/01:00pm 12.5 7.5 6.5 67 2.8 SSE 22 32 12 17 1023.8 1023.8 0.4
15/12:30pm 11.5 6.2 6.8 73 2.2 SSW 24 37 13 20 1023.8 1023.8 0.2
15/12:00pm 12.5 7.7 7.4 71 2.5 S 22 30 12 16 1023.6 1023.6 0.2
15/11:30am 12.1 7.8 7.2 72 2.4 SSE 19 28 10 15 1023.4 1023.4 0.2
15/11:00am 11.5 7.3 7.4 76 2.0 SSW 19 32 10 17 1023.2 1023.2 0.2
15/10:30am 11.0 6.2 7.5 79 1.7 S 22 30 12 16 1023.0 1023.0 0.2
15/10:00am 11.9 8.1 5.8 66 2.8 SSW 15 26 8 14 1022.5 1022.5 0.0
15/09:30am 11.8 9.2 6.1 68 2.7 ENE 9 13 5 7 1022.1 1022.1 0.0
15/09:00am 11.9 9.1 6.8 71 2.4 NE 11 13 6 7 1021.8 1021.8 3.2
15/08:30am 11.4 8.8 7.7 78 1.8 N 11 13 6 7 1021.4 1021.4 3.2
15/08:00am 10.4 8.1 7.5 82 1.4 NW 9 13 5 7 1021.0 1021.0 3.2
15/07:30am 9.7 7.8 7.5 86 1.0 NW 7 11 4 6 1020.5 1020.5 3.2
15/07:00am 9.3 6.3 7.7 90 0.8 NNW 13 19 7 10 1019.9 1019.9 3.2
15/06:30am 9.1 7.2 6.7 85 1.1 NE 6 13 3 7 1019.3 1019.3 3.2
15/06:00am 8.0 5.1 6.3 89 0.8 SW 11 17 6 9 1018.8 1018.8 3.2
15/05:30am 8.1 6.3 7.0 93 0.5 SSW 6 9 3 5 1018.3 1018.3 3.2
15/05:00am 8.1 6.1 7.0 93 0.5 W 7 11 4 6 1017.9 1017.9 3.2
15/04:30am 8.3 5.6 7.2 93 0.5 W 11 19 6 10 1017.5 1017.5 3.2
15/04:00am 8.3 6.5 7.2 93 0.5 SSW 6 9 3 5 1017.1 1017.1 3.2
15/03:30am 8.5 6.8 7.4 93 0.5 W 6 11 3 6 1017.0 1017.0 3.2
15/03:00am 8.8 6.9 7.7 93 0.5 WSW 7 9 4 5 1016.8 1016.8 3.2
15/02:30am 9.3 6.7 7.7 90 0.8 SSW 11 15 6 8 1016.6 1016.6 3.2
15/02:00am 9.7 6.7 7.8 88 0.9 S 13 19 7 10 1016.5 1016.5 3.2
15/01:30am 9.9 7.9 8.5 91 0.7 SSW 9 11 5 6 1016.5 1016.5 3.2
15/01:00am 9.8 8.3 8.4 91 0.7 SW 6 7 3 4 1016.5 1016.5 3.2
15/12:30am 9.7 9.3 8.1 90 0.8 CALM 0 0 0 0 1016.3 1016.3 3.2
15/12:00am 9.7 7.3 8.5 92 0.6 SSW 11 15 6 8 1016.2 1016.2 3.2
 
Date/Time
EDT
Temp
°C
App
Temp
°C
Dew
Point
°C
Rel
Hum
%
Delta-T
°C
Wind Press
QNH
hPa
Press
MSL
hPa
Rain since
9am
mm
Dir  Spd
km/h
Gust
km/h
Spd
kts
Gust
kts
14/11:30pm 10.0 8.5 8.6 91 0.7 SSE 6 11 3 6 1016.3 1016.3 3.2
14/11:00pm 10.2 8.8 8.8 91 0.7 SSW 6 7 3 4 1016.1 1016.1 2.6
14/10:30pm 10.3 8.9 8.9 91 0.7 SSW 6 11 3 6 1015.8 1015.8 2.4
14/10:00pm 10.3 8.4 9.2 93 0.5 S 9 15 5 8 1015.6 1015.6 2.4
14/09:30pm 10.3 8.5 9.5 95 0.4 ESE 9 13 5 7 1015.3 1015.3 2.2
14/09:00pm 10.3 8.9 9.5 95 0.4 SE 7 13 4 7 1015.0 1015.0 1.4
14/08:30pm 10.6 8.1 9.7 94 0.5 SE 13 15 7 8 1014.7 1014.7 1.2
14/08:00pm 10.6 8.1 9.7 94 0.5 ESE 13 19 7 10 1014.4 1014.4 1.0
14/07:30pm 10.7 7.4 9.5 92 0.6 SE 17 22 9 12 1014.1 1014.1 0.8
14/07:00pm 11.1 9.1 10.0 93 0.6 SE 11 15 6 8 1013.6 1013.5 0.6
14/06:30pm 11.2 9.9 9.8 91 0.7 SE 7 9 4 5 1013.2 1013.1 0.6
14/06:00pm 10.7 7.7 9.3 91 0.7 ESE 15 19 8 10 1013.2 1013.1 0.2
14/05:30pm 11.0 7.4 9.9 93 0.6 SE 19 28 10 15 1013.3 1013.2 0.0
14/05:00pm 11.5 8.4 10.2 92 0.7 SE 17 24 9 13 1013.0 1012.9 0.0
14/04:30pm 11.9 9.1 10.1 89 0.9 SE 15 19 8 10 1012.7 1012.6 0.0
14/04:00pm 12.7 9.5 9.9 83 1.4 SE 17 24 9 13 1012.5 1012.4 0.0
14/03:30pm 12.8 9.8 9.1 78 1.9 SE 15 22 8 12 1012.4 1012.3 0.0
14/03:00pm 13.6 10.5 8.9 73 2.4 SSE 15 24 8 13 1012.3 1012.2 0.0
14/02:30pm 13.6 10.1 8.9 73 2.4 SSE 17 22 9 12 1012.2 1012.1 0.0
14/02:00pm 13.7 9.8 9.6 76 2.1 SSE 20 28 11 15 1012.0 1011.9 0.0
14/01:30pm 14.3 10.5 9.9 75 2.3 SSE 20 30 11 16 1011.8 1011.7 0.0
14/01:00pm 15.2 10.1 10.6 74 2.4 SSE 28 39 15 21 1011.4 1011.3 0.0
14/12:30pm 16.1 12.7 11.1 72 2.7 ESE 20 33 11 18 1011.2 1011.1 0.0
14/12:00pm 17.5 14.7 11.5 68 3.3 ESE 17 24 9 13 1011.1 1011.0 0.0
14/11:30am 17.2 15.0 12.1 72 2.8 ESE 15 20 8 11 1011.4 1011.3 0.0
14/11:00am 16.7 14.5 12.0 74 2.6 E 15 20 8 11 1011.5 1011.4 0.0
14/10:30am 16.4 14.6 12.0 75 2.4 ESE 13 17 7 9 1011.6 1011.5 0.0
14/10:00am 17.0 15.3 12.3 74 2.6 SE 13 17 7 9 1011.7 1011.6 0.0
14/09:30am 16.1 15.2 12.5 79 2.0 SE 9 13 5 7 1011.6 1011.5 0.0
14/09:00am 15.3 13.9 12.1 81 1.7 ESE 11 15 6 8 1011.5 1011.4 0.0
14/08:30am 15.0 12.8 12.1 83 1.6 ESE 15 19 8 10 1011.3 1011.2 0.0
14/08:00am 15.4 13.7 12.5 83 1.6 E 13 19 7 10 1010.8 1010.7 0.0
14/07:30am 15.1 14.1 12.2 83 1.6 SE 9 13 5 7 1010.6 1010.5 0.0
14/07:00am 14.3 13.7 12.3 88 1.1 SE 7 11 4 6 1010.4 1010.3 0.0
14/06:30am 14.0 13.4 12.4 90 0.9 SE 7 11 4 6 1009.9 1009.9 0.0
14/06:00am 13.8 13.2 12.2 90 0.9 SE 7 11 4 6 1009.5 1009.5 0.0
14/05:30am 13.3 12.4 11.4 88 1.0 S 7 9 4 5 1009.2 1009.2 0.0
14/05:00am 13.7 12.7 12.3 91 0.8 SE 9 11 5 6 1008.9 1008.9 0.0
14/04:30am 13.8 13.3 12.2 90 0.9 SSE 6 9 3 5 1008.6 1008.6 0.0
14/04:00am 13.9 13.9 12.3 90 0.9 ESE 4 9 2 5 1008.3 1008.3 0.0
14/03:30am 14.1 13.7 12.5 90 0.9 E 6 9 3 5 1008.1 1008.1 0.0
14/03:00am 14.5 14.3 11.7 83 1.5 SE 4 7 2 4 1007.8 1007.8 0.0
14/02:30am 14.5 13.9 11.7 83 1.5 SW 6 9 3 5 1007.7 1007.7 0.0
14/02:00am 14.5 15.0 11.7 83 1.5 CALM 0 0 0 0 1007.4 1007.4 0.0
14/01:30am 14.2 13.5 11.4 83 1.5 WSW 6 7 3 4 1007.5 1007.5 0.0
14/01:00am 14.4 15.2 12.4 88 1.1 CALM 0 0 0 0 1007.5 1007.5 0.0
14/12:30am 14.5 14.1 12.4 87 1.1 NNE 6 7 3 4 1007.4 1007.4 0.0
14/12:00am 14.9 14.4 12.6 86 1.3 NNE 7 11 4 6 1007.1 1007.1 0.0
 
Date/Time
EDT
Temp
°C
App
Temp
°C
Dew
Point
°C
Rel
Hum
%
Delta-T
°C
Wind Press
QNH
hPa
Press
MSL
hPa
Rain since
9am
mm
Dir  Spd
km/h
Gust
km/h
Spd
kts
Gust
kts
13/11:30pm 15.0 14.5 12.7 86 1.3 NW 7 11 4 6 1006.7 1006.7 0.0
13/11:00pm 15.3 14.7 12.4 83 1.6 N 7 11 4 6 1006.7 1006.7 0.0

Other Formats:

Comma delimited format used in spreadsheet applications
http://www.bom.gov.au/fwo/IDT60801/IDT60801.94970.axf

JavaScript Object Notation format (JSON) in row-major order
http://www.bom.gov.au/fwo/IDT60801/IDT60801.94970.json